Friendsville, Illinois
Current Conditions -  °F | °C
As of 12:55 PM on Friday 24 Oct 2014 (Local Time) from KAJG Reporting Station
Clear Clear  
Wind Chill: 70°   Ceiling: Unl
Heat Index: 70°   Visibility: 10mi
Dew Point: 52°   Wind: 6mph
Humidity: 53%   Direction: 230°SW
Pressure: 30.08"   Gusts: NA
Location:  38.4145°N, 87.8638°W
Report Text: KAJG 241755Z AUTO 23005KT 10SM CLR 21/11 A3008 RMK AO2
Loading
Personal Weather Stations






























Interactive Weather Map
Tropical Storm Tracking
New forecast layout! Learn more

10-Day Weather Forecast

Advertisements
Track Severe Weather on mobile